Fort Pierce, FL (34945)

10:38 PM EST on February 25, 2017 (GMT -0500)
Kirchman South | | Change Station

Elev 18 ft 27.46 °N, 80.49 °W | Updated 8 minutes ago

Partly Cloudy
Partly Cloudy
67.5 °F
Feels Like 67.5 °F
N
0.0
Wind Variable Wind from NW
Gusts 14.0 mph

Today
High -- | Low -- °F
--% Chance of Precip.
Yesterday
High -- | Low -- °F
Precip. -- in
Pressure 29.96 in
Visibility 9.0 miles
Clouds Few 6000 ft
Dew Point 59 °F
Humidity 74%
Rainfall 0.00 in
Snow Depth Not available.
6:49 AM 6:20 PM
Waning Crescent, 0% visible
METAR KFPR 260253Z AUTO 00000KT 9SM FEW060 19/18 A2996 RMK AO2 SLP145 T01890183 51019
Pressure 29.96 in
Visibility 9.0 miles
Clouds Few 6000 ft
Dew Point 59 °F
Humidity 74%
Rainfall 0.00 in
Snow Depth Not available.
6:49 AM 6:20 PM
Waning Crescent, 0% visible
METAR KFPR 260253Z AUTO 00000KT 9SM FEW060 19/18 A2996 RMK AO2 SLP145 T01890183 51019

Get Your Daily Forecast Email!

Thanks for signing up!

Be on the lookout for a verification email in your inbox.

You'll start receiving the daily forecast at 8 AM.

×

10-Day Weather Forecast

Almanac

Astronomy

Feb. 25, 2017 Rise Set
Actual Time
Civil Twilight
Nautical Twilight
Astronomical Twilight
Moon
Length of Visible Light
Length of Day
Tomorrow will be .
, % of the Moon is Illuminated

Today's Extremes

State Highs State Lows

Community

WunderPhotos

Upload Photos

1,962,540 photos uploaded!

WunderBlog® & News

Nearby

Air Quality

  Air Quality AQ Index Pollutant
Not available.

Snow Depth

Station Depth Elevation

Earthquake Activity

City Distance Mag. Time & Date
Minimum magnitude displayed is 2.5.

Coastal Water Temperatures

Place Temperature

Stations

Nearby Weather Stations

Station Location Temp. Windchill Dew Point Humidity Wind Precip. Elev Updated Type
                   

Watches & Warnings

There are currently no watches in effect.